createdAt,value
2023-02-20T00:00:27.640Z,5.76
2023-02-20T00:02:30.668Z,5.76
2023-02-20T00:04:32.197Z,5.77
2023-02-20T00:06:33.647Z,5.78
2023-02-20T00:08:35.135Z,5.78
2023-02-20T00:10:36.571Z,5.78
2023-02-20T00:12:38.078Z,5.78
2023-02-20T00:14:39.533Z,5.76
2023-02-20T00:16:41.331Z,5.77
2023-02-20T00:18:44.240Z,5.78
2023-02-20T00:20:45.758Z,5.79
2023-02-20T00:22:47.339Z,5.77
2023-02-20T00:24:49.399Z,5.78
2023-02-20T00:26:53.184Z,5.77
2023-02-20T00:28:54.676Z,5.76
2023-02-20T00:30:56.469Z,5.77
2023-02-20T00:32:58.756Z,5.79
2023-02-20T00:35:00.210Z,5.80
2023-02-20T00:37:01.788Z,5.78
2023-02-20T00:39:03.313Z,5.80
2023-02-20T00:41:04.968Z,5.80
2023-02-20T00:43:06.449Z,5.82
2023-02-20T00:45:08.665Z,5.82
2023-02-20T00:47:10.128Z,5.83
2023-02-20T00:49:11.576Z,5.82
2023-02-20T00:51:13.024Z,5.81
2023-02-20T00:53:14.467Z,5.84
2023-02-20T00:55:15.982Z,5.83
2023-02-20T00:57:17.494Z,5.85
2023-02-20T00:59:19.000Z,5.89
2023-02-20T01:01:20.763Z,5.88
2023-02-20T01:03:22.259Z,5.86
2023-02-20T01:05:24.317Z,5.88
2023-02-20T01:07:25.814Z,5.87
2023-02-20T01:09:28.182Z,5.89
2023-02-20T01:11:29.639Z,5.88
2023-02-20T01:13:31.910Z,5.88
2023-02-20T01:15:33.416Z,5.87
2023-02-20T01:17:34.971Z,5.89
2023-02-20T01:19:36.473Z,5.90
2023-02-20T01:21:37.947Z,5.91
2023-02-20T01:23:39.390Z,5.94
2023-02-20T01:25:40.866Z,5.95
2023-02-20T01:27:42.321Z,5.96
2023-02-20T01:29:43.905Z,5.98
2023-02-20T01:31:51.941Z,5.98
2023-02-20T01:33:53.829Z,6.01
2023-02-20T01:35:55.271Z,6.03
2023-02-20T01:37:57.257Z,6.03
2023-02-20T01:39:58.726Z,6.07
2023-02-20T01:42:09.491Z,6.08
2023-02-20T01:44:23.426Z,6.09
2023-02-20T01:46:27.906Z,6.11
2023-02-20T01:48:29.438Z,6.11
2023-02-20T01:50:37.052Z,6.12
2023-02-20T01:52:39.091Z,6.13
2023-02-20T01:54:43.656Z,6.19
2023-02-20T01:56:46.529Z,6.20
2023-02-20T01:58:49.919Z,6.22
2023-02-20T02:00:51.508Z,6.23
2023-02-20T02:03:13.254Z,6.26
2023-02-20T02:05:17.403Z,6.26
2023-02-20T02:07:19.102Z,6.28
2023-02-20T02:09:48.673Z,6.29
2023-02-20T02:11:50.795Z,6.30
2023-02-20T02:13:52.418Z,6.32
2023-02-20T02:16:09.971Z,6.35
2023-02-20T02:18:23.643Z,6.38
2023-02-20T02:21:07.125Z,6.38
2023-02-20T02:23:17.729Z,6.41
2023-02-20T02:25:23.695Z,6.44
2023-02-20T02:27:28.217Z,6.45
2023-02-20T02:30:08.959Z,6.45
2023-02-20T02:32:41.624Z,6.45
2023-02-20T02:35:01.987Z,6.45
2023-02-20T02:37:30.107Z,6.47
2023-02-20T02:40:03.627Z,6.47
2023-02-20T02:42:14.578Z,6.46
2023-02-20T02:45:16.904Z,6.46
2023-02-20T02:47:27.611Z,6.49
2023-02-20T02:49:56.083Z,6.49
2023-02-20T02:51:59.232Z,6.49
2023-02-20T02:54:09.121Z,6.50
2023-02-20T02:56:23.463Z,6.51
2023-02-20T02:58:25.010Z,6.52
2023-02-20T03:00:32.525Z,6.53
2023-02-20T03:02:41.925Z,6.54
2023-02-20T03:04:47.252Z,6.54
2023-02-20T03:06:52.803Z,6.54
2023-02-20T03:09:01.282Z,6.54
2023-02-20T03:11:19.918Z,6.57
2023-02-20T03:13:21.366Z,6.56
2023-02-20T03:15:39.247Z,6.53
2023-02-20T03:17:53.041Z,6.55
2023-02-20T03:19:57.692Z,6.56
2023-02-20T03:22:01.069Z,6.57
2023-02-20T03:24:05.397Z,6.61
2023-02-20T03:26:10.885Z,6.66
2023-02-20T03:28:21.545Z,6.68
2023-02-20T03:30:55.422Z,6.68
2023-02-20T03:33:23.119Z,6.69
2023-02-20T03:35:44.534Z,6.67
2023-02-20T03:38:06.858Z,6.68
2023-02-20T03:40:30.619Z,6.69
2023-02-20T03:42:55.662Z,6.66
2023-02-20T03:44:59.846Z,6.67
2023-02-20T03:47:03.498Z,6.69
2023-02-20T03:49:11.173Z,6.67
2023-02-20T03:51:13.235Z,6.69
2023-02-20T03:53:15.102Z,6.71
2023-02-20T03:55:16.764Z,6.71
2023-02-20T03:57:26.702Z,6.72
2023-02-20T03:59:47.952Z,6.72
2023-02-20T04:01:54.745Z,6.70
2023-02-20T04:03:57.986Z,6.70
2023-02-20T04:06:02.194Z,6.70
2023-02-20T04:08:30.667Z,6.68
2023-02-20T04:10:39.893Z,6.67
2023-02-20T04:12:45.297Z,6.66
2023-02-20T04:14:49.125Z,6.69
2023-02-20T04:16:55.716Z,6.74
2023-02-20T04:18:57.215Z,6.76
2023-02-20T04:21:01.862Z,6.77
2023-02-20T04:23:15.402Z,6.78
2023-02-20T04:25:31.075Z,6.78
2023-02-20T04:27:32.881Z,6.77
2023-02-20T04:29:34.454Z,6.81
2023-02-20T04:31:36.090Z,6.83
2023-02-20T04:33:37.607Z,6.86
2023-02-20T04:35:39.953Z,6.85
2023-02-20T04:37:41.383Z,6.86
2023-02-20T04:39:43.419Z,6.88
2023-02-20T04:41:44.861Z,6.89
2023-02-20T04:43:47.230Z,6.88
2023-02-20T04:45:48.719Z,6.90
2023-02-20T04:47:50.488Z,6.90
2023-02-20T04:49:51.942Z,6.91
2023-02-20T04:51:53.462Z,6.91
2023-02-20T04:53:54.910Z,6.92
2023-02-20T04:55:56.389Z,6.92
2023-02-20T04:57:58.467Z,6.92
2023-02-20T05:00:00.085Z,6.91
2023-02-20T05:02:02.070Z,6.91
2023-02-20T05:04:03.587Z,6.89
2023-02-20T05:06:05.208Z,6.88
2023-02-20T05:08:08.227Z,6.86
2023-02-20T05:10:13.894Z,6.86
2023-02-20T05:12:15.411Z,6.85
2023-02-20T05:14:17.614Z,6.82
2023-02-20T05:16:19.156Z,6.82
2023-02-20T05:18:27.938Z,6.83
2023-02-20T05:20:48.153Z,6.82
2023-02-20T05:22:49.610Z,6.80
2023-02-20T05:24:52.030Z,6.81
2023-02-20T05:26:53.503Z,6.79
2023-02-20T05:28:54.943Z,6.82
2023-02-20T05:30:56.393Z,6.84
2023-02-20T05:32:57.905Z,6.82
2023-02-20T05:34:59.456Z,6.79
2023-02-20T05:37:00.896Z,6.79
2023-02-20T05:39:02.834Z,6.78
2023-02-20T05:41:04.495Z,6.79
2023-02-20T05:43:05.976Z,6.79
2023-02-20T05:45:09.132Z,6.80
2023-02-20T05:47:10.966Z,6.79
2023-02-20T05:49:12.629Z,6.77
2023-02-20T05:51:22.640Z,6.78
2023-02-20T05:53:24.210Z,6.77
2023-02-20T05:55:25.733Z,6.75
2023-02-20T05:57:27.287Z,6.77
2023-02-20T05:59:28.743Z,6.75
2023-02-20T06:01:31.969Z,6.72
2023-02-20T06:03:33.464Z,6.70
2023-02-20T06:05:34.928Z,6.71
2023-02-20T06:07:36.402Z,6.70
2023-02-20T06:09:41.241Z,6.66
2023-02-20T06:11:48.009Z,6.65
2023-02-20T06:13:49.431Z,6.66
2023-02-20T06:15:51.018Z,6.67
2023-02-20T06:17:53.100Z,6.67
2023-02-20T06:19:54.534Z,6.67
2023-02-20T06:21:58.705Z,6.68
2023-02-20T06:24:00.179Z,6.71
2023-02-20T06:26:01.678Z,6.75
2023-02-20T06:28:03.292Z,6.74
2023-02-20T06:30:05.663Z,6.74
2023-02-20T06:32:07.394Z,6.75
2023-02-20T06:34:10.293Z,6.78
2023-02-20T06:36:20.516Z,6.78
2023-02-20T06:38:22.063Z,6.80
2023-02-20T06:40:23.532Z,6.79
2023-02-20T06:42:25.023Z,6.77
2023-02-20T06:44:26.509Z,6.77
2023-02-20T06:46:28.330Z,6.76
2023-02-20T06:48:29.840Z,6.78
2023-02-20T06:50:31.372Z,6.81
2023-02-20T06:52:32.824Z,6.79
2023-02-20T06:54:34.532Z,6.80
2023-02-20T06:56:37.195Z,6.79
2023-02-20T06:58:38.660Z,6.81
2023-02-20T07:00:40.103Z,6.83
2023-02-20T07:02:41.689Z,6.83
2023-02-20T07:04:43.199Z,6.85
2023-02-20T07:06:44.770Z,6.85
2023-02-20T07:08:46.208Z,6.86
2023-02-20T07:10:47.699Z,6.88
2023-02-20T07:12:49.269Z,6.89
2023-02-20T07:14:51.568Z,6.90
2023-02-20T07:16:53.145Z,6.90
2023-02-20T07:18:54.604Z,6.93
2023-02-20T07:20:56.534Z,6.95
2023-02-20T07:22:57.984Z,6.99
2023-02-20T07:24:59.443Z,7.02
2023-02-20T07:27:00.918Z,7.01
2023-02-20T07:29:02.453Z,7.02
2023-02-20T07:31:04.163Z,7.03
2023-02-20T07:33:05.688Z,7.03
2023-02-20T07:35:09.422Z,7.03
2023-02-20T07:37:11.109Z,7.04
2023-02-20T07:39:13.405Z,7.05
2023-02-20T07:41:15.500Z,7.06
2023-02-20T07:43:16.967Z,7.09
2023-02-20T07:45:18.679Z,7.07
2023-02-20T07:47:20.155Z,7.07
2023-02-20T07:49:21.600Z,7.08
2023-02-20T07:51:23.092Z,7.10
2023-02-20T07:53:24.611Z,7.12
2023-02-20T07:55:26.202Z,7.15
2023-02-20T07:57:27.770Z,7.17
2023-02-20T07:59:29.246Z,7.18
2023-02-20T08:01:30.711Z,7.19
2023-02-20T08:03:32.218Z,7.20
2023-02-20T08:05:48.290Z,7.25
2023-02-20T08:07:51.078Z,7.27
2023-02-20T08:09:52.708Z,7.28
2023-02-20T08:11:54.197Z,7.29
2023-02-20T08:13:55.804Z,7.33
2023-02-20T08:15:57.376Z,7.35
2023-02-20T08:17:58.868Z,7.37
2023-02-20T08:20:00.356Z,7.40
2023-02-20T08:22:01.818Z,7.43
2023-02-20T08:24:03.322Z,7.43
2023-02-20T08:26:05.874Z,7.46
2023-02-20T08:28:07.358Z,7.47
2023-02-20T08:30:23.904Z,7.47
2023-02-20T08:32:25.562Z,7.49
2023-02-20T08:34:27.107Z,7.51
2023-02-20T08:36:29.014Z,7.55
2023-02-20T08:38:36.563Z,7.54
2023-02-20T08:40:38.038Z,7.53
2023-02-20T08:42:39.673Z,7.57
2023-02-20T08:44:41.616Z,7.60
2023-02-20T08:46:50.612Z,7.62
2023-02-20T08:48:52.198Z,7.62
2023-02-20T08:50:53.771Z,7.65
2023-02-20T08:52:55.264Z,7.65
2023-02-20T08:54:56.711Z,7.66
2023-02-20T08:56:58.162Z,7.69
2023-02-20T08:58:59.632Z,7.71
2023-02-20T09:01:01.133Z,7.74
2023-02-20T09:03:07.202Z,7.78
2023-02-20T09:05:09.053Z,7.79
2023-02-20T09:07:10.857Z,7.79
2023-02-20T09:09:12.392Z,7.81
2023-02-20T09:11:14.752Z,7.83
2023-02-20T09:13:16.674Z,7.83
2023-02-20T09:15:18.207Z,7.87
2023-02-20T09:17:19.714Z,7.88
2023-02-20T09:19:21.537Z,7.92
2023-02-20T09:21:23.129Z,7.91
2023-02-20T09:23:25.568Z,7.94
2023-02-20T09:25:27.093Z,7.93
2023-02-20T09:27:28.533Z,7.95
2023-02-20T09:29:30.027Z,7.95
2023-02-20T09:31:31.613Z,7.95
2023-02-20T09:33:33.545Z,7.96
2023-02-20T09:35:35.022Z,7.99
2023-02-20T09:37:36.472Z,7.98
2023-02-20T09:39:37.991Z,8.00
2023-02-20T09:42:03.654Z,8.04
2023-02-20T09:44:29.021Z,8.08
2023-02-20T09:46:31.146Z,8.10
2023-02-20T09:49:10.029Z,8.14
2023-02-20T09:51:16.445Z,8.19
2023-02-20T09:53:36.895Z,8.20
2023-02-20T09:55:41.080Z,8.23
2023-02-20T09:57:44.166Z,8.26
2023-02-20T10:00:04.030Z,8.28
2023-02-20T10:02:16.534Z,8.30
2023-02-20T10:04:21.687Z,8.31
2023-02-20T10:06:26.984Z,8.35
2023-02-20T10:08:28.454Z,8.38
2023-02-20T10:10:41.482Z,8.41
2023-02-20T10:12:56.015Z,8.43
2023-02-20T10:15:03.632Z,8.46
2023-02-20T10:17:11.128Z,8.47
2023-02-20T10:19:27.895Z,8.50
2023-02-20T10:21:34.354Z,8.53
2023-02-20T10:23:47.276Z,8.56
2023-02-20T10:26:04.797Z,8.57
2023-02-20T10:28:10.800Z,8.58
2023-02-20T10:30:15.774Z,8.58
2023-02-20T10:32:37.938Z,8.60
2023-02-20T10:34:58.701Z,8.61
2023-02-20T10:37:17.729Z,8.62
2023-02-20T10:39:21.706Z,8.65
2023-02-20T10:41:32.055Z,8.67
2023-02-20T10:43:44.515Z,8.69
2023-02-20T10:45:55.915Z,8.70
2023-02-20T10:48:09.714Z,8.70
2023-02-20T10:50:23.986Z,8.69
2023-02-20T10:52:37.119Z,8.72
2023-02-20T10:54:45.984Z,8.71
2023-02-20T10:57:08.256Z,8.73
2023-02-20T10:59:18.806Z,8.75
2023-02-20T11:01:23.305Z,8.77
2023-02-20T11:03:36.973Z,8.79
2023-02-20T11:05:46.894Z,8.79
2023-02-20T11:07:49.473Z,8.81
2023-02-20T11:09:51.032Z,8.81
2023-02-20T11:11:54.805Z,8.80
2023-02-20T11:13:59.135Z,8.79
2023-02-20T11:16:01.610Z,8.79
2023-02-20T11:18:11.824Z,8.78
2023-02-20T11:20:31.782Z,8.78
2023-02-20T11:22:45.492Z,8.75
2023-02-20T11:24:47.287Z,8.76
2023-02-20T11:26:52.117Z,8.77
2023-02-20T11:29:04.914Z,8.77
2023-02-20T11:31:08.397Z,8.78
2023-02-20T11:33:23.780Z,8.76
2023-02-20T11:35:29.866Z,8.78
2023-02-20T11:37:35.964Z,8.75
2023-02-20T11:39:38.852Z,8.74
2023-02-20T11:41:40.770Z,8.73
2023-02-20T11:44:00.171Z,8.74
2023-02-20T11:46:23.055Z,8.73
2023-02-20T11:48:24.519Z,8.72
2023-02-20T11:50:42.065Z,8.72
2023-02-20T11:53:02.512Z,8.73
2023-02-20T11:55:33.840Z,8.73
2023-02-20T11:57:40.335Z,8.73
2023-02-20T11:59:47.286Z,8.76
2023-02-20T12:02:00.331Z,8.75
2023-02-20T12:04:02.498Z,8.76
2023-02-20T12:06:31.695Z,8.77
2023-02-20T12:08:42.916Z,8.79
2023-02-20T12:10:48.362Z,8.82
2023-02-20T12:12:50.254Z,8.85
2023-02-20T12:14:51.803Z,8.84
2023-02-20T12:17:06.427Z,8.87
2023-02-20T12:19:34.867Z,8.88
2023-02-20T12:22:01.178Z,8.92
2023-02-20T12:24:35.845Z,8.93
2023-02-20T12:26:59.354Z,8.95
2023-02-20T12:29:31.017Z,8.98
2023-02-20T12:32:01.782Z,8.98
2023-02-20T12:34:28.138Z,9.01
2023-02-20T12:37:11.221Z,9.05
2023-02-20T12:39:33.988Z,9.08
2023-02-20T12:41:59.220Z,9.09
2023-02-20T12:44:39.665Z,9.11
2023-02-20T12:47:03.978Z,9.15
2023-02-20T12:49:11.386Z,9.18
2023-02-20T12:51:42.671Z,9.18
2023-02-20T12:53:58.313Z,9.21
2023-02-20T12:56:16.708Z,9.22
2023-02-20T12:58:45.897Z,9.24
2023-02-20T13:00:52.285Z,9.26
2023-02-20T13:03:02.931Z,9.27
2023-02-20T13:05:08.189Z,9.29
2023-02-20T13:07:24.566Z,9.30
2023-02-20T13:10:09.133Z,9.32
2023-02-20T13:12:15.164Z,9.33
2023-02-20T13:14:16.574Z,9.34
2023-02-20T13:16:27.136Z,9.33
2023-02-20T13:18:44.370Z,9.30
2023-02-20T13:20:49.824Z,9.25
2023-02-20T13:23:15.452Z,9.25
2023-02-20T13:25:41.740Z,9.25
2023-02-20T13:27:43.330Z,9.24
2023-02-20T13:30:17.987Z,9.21
2023-02-20T13:32:19.582Z,9.20
2023-02-20T13:34:33.700Z,9.22
2023-02-20T13:36:35.144Z,9.19
2023-02-20T13:38:36.621Z,9.22
2023-02-20T13:40:45.851Z,9.20
2023-02-20T13:42:47.335Z,9.18
2023-02-20T13:44:50.697Z,9.15
2023-02-20T13:47:02.735Z,9.12
2023-02-20T13:49:08.864Z,9.12
2023-02-20T13:51:16.572Z,9.09
2023-02-20T13:53:18.096Z,9.05
2023-02-20T13:55:25.308Z,9.03
2023-02-20T13:57:33.727Z,9.01
2023-02-20T13:59:37.468Z,9.02
2023-02-20T14:01:57.055Z,9.01
2023-02-20T14:04:03.990Z,9.02
2023-02-20T14:06:16.644Z,9.03
2023-02-20T14:08:19.139Z,9.04
2023-02-20T14:10:23.235Z,9.04
2023-02-20T14:12:24.741Z,9.06
2023-02-20T14:14:32.391Z,9.08
2023-02-20T14:16:41.820Z,9.12
2023-02-20T14:18:43.625Z,9.14
2023-02-20T14:20:45.528Z,9.17
2023-02-20T14:22:47.095Z,9.19
2023-02-20T14:25:16.356Z,9.24
2023-02-20T14:27:33.383Z,9.26
2023-02-20T14:29:36.657Z,9.26
2023-02-20T14:31:38.437Z,9.30
2023-02-20T14:33:40.122Z,9.31
2023-02-20T14:36:00.937Z,9.34
2023-02-20T14:38:30.095Z,9.35
2023-02-20T14:40:41.562Z,9.37
2023-02-20T14:42:46.983Z,9.38
2023-02-20T14:44:51.013Z,9.38
2023-02-20T14:46:56.118Z,9.40
2023-02-20T14:49:09.429Z,9.42
2023-02-20T14:51:15.514Z,9.43
2023-02-20T14:53:20.836Z,9.43
2023-02-20T14:55:25.866Z,9.44
2023-02-20T14:57:28.697Z,9.44
2023-02-20T14:59:34.289Z,9.44
2023-02-20T15:01:39.323Z,9.46
2023-02-20T15:03:40.978Z,9.44
2023-02-20T15:05:44.647Z,9.47
2023-02-20T15:07:46.853Z,9.47
2023-02-20T15:09:51.112Z,9.47
2023-02-20T15:11:59.195Z,9.47
2023-02-20T15:14:02.224Z,9.48
2023-02-20T15:16:28.598Z,9.49
2023-02-20T15:18:37.209Z,9.49
2023-02-20T15:20:42.653Z,9.52
2023-02-20T15:22:44.621Z,9.51
2023-02-20T15:24:46.083Z,9.51
2023-02-20T15:26:47.542Z,9.52
2023-02-20T15:28:49.018Z,9.53
2023-02-20T15:31:08.498Z,9.54
2023-02-20T15:33:10.155Z,9.54
2023-02-20T15:35:23.841Z,9.55
2023-02-20T15:37:37.963Z,9.54
2023-02-20T15:39:47.770Z,9.56
2023-02-20T15:41:49.328Z,9.56
2023-02-20T15:43:51.859Z,9.57
2023-02-20T15:45:54.248Z,9.58
2023-02-20T15:47:56.809Z,9.60
2023-02-20T15:49:58.354Z,9.60
2023-02-20T15:52:08.938Z,9.61
2023-02-20T15:54:17.148Z,9.61
2023-02-20T15:56:19.921Z,9.63
2023-02-20T15:58:31.440Z,9.65
2023-02-20T16:00:35.256Z,9.65
2023-02-20T16:02:36.853Z,9.66
2023-02-20T16:04:38.336Z,9.69
2023-02-20T16:06:39.923Z,9.67
2023-02-20T16:08:42.239Z,9.71
2023-02-20T16:10:43.714Z,9.71
2023-02-20T16:12:47.051Z,9.71
2023-02-20T16:14:53.577Z,9.72
2023-02-20T16:16:55.430Z,9.72
2023-02-20T16:18:57.154Z,9.72
2023-02-20T16:20:58.804Z,9.72
2023-02-20T16:23:00.932Z,9.73
2023-02-20T16:25:02.469Z,9.74
2023-02-20T16:27:07.718Z,9.71
2023-02-20T16:29:20.474Z,9.71
2023-02-20T16:31:22.078Z,9.69
2023-02-20T16:33:24.389Z,9.67
2023-02-20T16:35:25.879Z,9.64
2023-02-20T16:37:28.904Z,9.60
2023-02-20T16:39:30.440Z,9.58
2023-02-20T16:41:33.966Z,9.53
2023-02-20T16:43:35.472Z,9.48
2023-02-20T16:45:37.136Z,9.47
2023-02-20T16:47:38.677Z,9.43
2023-02-20T16:49:40.437Z,9.40
2023-02-20T16:51:49.230Z,9.39
2023-02-20T16:53:50.605Z,9.35
2023-02-20T16:55:52.147Z,9.32
2023-02-20T16:57:54.639Z,9.30
2023-02-20T16:59:58.852Z,9.30
2023-02-20T17:02:00.614Z,9.28
2023-02-20T17:04:03.003Z,9.26
2023-02-20T17:06:04.720Z,9.26
2023-02-20T17:08:07.091Z,9.26
2023-02-20T17:10:09.029Z,9.26
2023-02-20T17:12:11.351Z,9.24
2023-02-20T17:14:15.904Z,9.22
2023-02-20T17:16:30.770Z,9.21
2023-02-20T17:18:32.674Z,9.21
2023-02-20T17:20:34.149Z,9.20
2023-02-20T17:22:35.659Z,9.21
2023-02-20T17:24:43.223Z,9.19
2023-02-20T17:26:45.566Z,9.20
2023-02-20T17:28:47.454Z,9.20
2023-02-20T17:30:54.309Z,9.20
2023-02-20T17:32:55.788Z,9.19
2023-02-20T17:34:57.262Z,9.16
2023-02-20T17:36:59.315Z,9.17
2023-02-20T17:39:00.942Z,9.15
2023-02-20T17:41:04.146Z,9.17
2023-02-20T17:43:06.183Z,9.17
2023-02-20T17:45:08.315Z,9.18
2023-02-20T17:47:10.558Z,9.18
2023-02-20T17:49:12.996Z,9.18
2023-02-20T17:51:19.704Z,9.18
2023-02-20T17:53:21.196Z,9.17
2023-02-20T17:55:25.614Z,9.19
2023-02-20T17:57:28.276Z,9.18
2023-02-20T17:59:30.532Z,9.20
2023-02-20T18:01:32.036Z,9.20
2023-02-20T18:03:33.518Z,9.21
2023-02-20T18:05:35.004Z,9.23
2023-02-20T18:07:36.497Z,9.23
2023-02-20T18:09:38.711Z,9.23
2023-02-20T18:11:40.316Z,9.25
2023-02-20T18:13:41.803Z,9.28
2023-02-20T18:15:43.406Z,9.30
2023-02-20T18:17:44.894Z,9.33
2023-02-20T18:19:46.381Z,9.35
2023-02-20T18:21:49.848Z,9.37
2023-02-20T18:23:51.432Z,9.38
2023-02-20T18:25:53.628Z,9.39
2023-02-20T18:27:55.207Z,9.39
2023-02-20T18:29:56.741Z,9.40
2023-02-20T18:31:58.933Z,9.40
2023-02-20T18:34:01.843Z,9.40
2023-02-20T18:36:08.288Z,9.42
2023-02-20T18:38:20.963Z,9.42
2023-02-20T18:40:24.167Z,9.42
2023-02-20T18:42:25.706Z,9.42
2023-02-20T18:44:27.724Z,9.48
2023-02-20T18:46:36.591Z,9.49
2023-02-20T18:48:38.116Z,9.50
2023-02-20T18:50:39.619Z,9.52
2023-02-20T18:52:41.158Z,9.52
2023-02-20T18:54:42.714Z,9.53
2023-02-20T18:56:48.659Z,9.53
2023-02-20T18:58:50.560Z,9.54
2023-02-20T19:00:52.070Z,9.54
2023-02-20T19:02:55.501Z,9.54
2023-02-20T19:04:58.782Z,9.51
2023-02-20T19:07:00.362Z,9.53
2023-02-20T19:09:02.019Z,9.52
2023-02-20T19:11:03.698Z,9.50
2023-02-20T19:13:05.209Z,9.50
2023-02-20T19:15:07.661Z,9.50
2023-02-20T19:17:10.640Z,9.47
2023-02-20T19:19:18.476Z,9.47
2023-02-20T19:21:22.782Z,9.47
2023-02-20T19:23:24.284Z,9.42
2023-02-20T19:25:26.355Z,9.40
2023-02-20T19:27:28.151Z,9.40
2023-02-20T19:29:29.637Z,9.39
2023-02-20T19:31:31.183Z,9.38
2023-02-20T19:33:32.712Z,9.33
2023-02-20T19:35:34.230Z,9.33
2023-02-20T19:37:36.562Z,9.31
2023-02-20T19:39:38.092Z,9.29
2023-02-20T19:41:39.667Z,9.27
2023-02-20T19:43:41.301Z,9.29
2023-02-20T19:45:43.008Z,9.27
2023-02-20T19:47:45.547Z,9.26
2023-02-20T19:49:47.288Z,9.24
2023-02-20T19:51:51.053Z,9.25
2023-02-20T19:53:52.690Z,9.26
2023-02-20T19:55:54.487Z,9.28
2023-02-20T19:57:56.375Z,9.27
2023-02-20T19:59:57.854Z,9.27
2023-02-20T20:02:00.795Z,9.26
2023-02-20T20:04:02.291Z,9.27
2023-02-20T20:06:03.985Z,9.25
2023-02-20T20:08:06.814Z,9.26
2023-02-20T20:10:10.790Z,9.28
2023-02-20T20:12:30.949Z,9.28
2023-02-20T20:14:32.433Z,9.31
2023-02-20T20:16:37.589Z,9.32
2023-02-20T20:18:39.161Z,9.33
2023-02-20T20:20:40.662Z,9.35
2023-02-20T20:22:42.478Z,9.40
2023-02-20T20:24:43.948Z,9.41
2023-02-20T20:26:45.533Z,9.43
2023-02-20T20:28:47.014Z,9.49
2023-02-20T20:30:48.721Z,9.49
2023-02-20T20:32:51.587Z,9.49
2023-02-20T20:34:55.217Z,9.51
2023-02-20T20:36:56.970Z,9.50
2023-02-20T20:38:58.454Z,9.50
2023-02-20T20:40:59.939Z,9.52
2023-02-20T20:43:01.412Z,9.52
2023-02-20T20:45:03.585Z,9.52
2023-02-20T20:47:06.457Z,9.57
2023-02-20T20:49:10.902Z,9.57
2023-02-20T20:51:14.398Z,9.56
2023-02-20T20:53:16.745Z,9.58
2023-02-20T20:55:18.222Z,9.60
2023-02-20T20:57:22.021Z,9.59
2023-02-20T20:59:23.494Z,9.61
2023-02-20T21:01:25.239Z,9.61
2023-02-20T21:03:26.781Z,9.64
2023-02-20T21:05:31.761Z,9.64
2023-02-20T21:07:33.803Z,9.64
2023-02-20T21:09:35.454Z,9.63
2023-02-20T21:11:36.989Z,9.63
2023-02-20T21:13:38.444Z,9.65
2023-02-20T21:15:39.994Z,9.63
2023-02-20T21:17:43.146Z,9.63
2023-02-20T21:19:44.599Z,9.65
2023-02-20T21:21:46.074Z,9.63
2023-02-20T21:23:47.828Z,9.65
2023-02-20T21:25:49.317Z,9.66
2023-02-20T21:27:52.081Z,9.68
2023-02-20T21:29:53.606Z,9.68
2023-02-20T21:31:55.105Z,9.70
2023-02-20T21:33:57.284Z,9.71
2023-02-20T21:36:00.341Z,9.69
2023-02-20T21:38:01.863Z,9.70
2023-02-20T21:40:03.691Z,9.70
2023-02-20T21:42:24.215Z,9.70
2023-02-20T21:44:26.470Z,9.69
2023-02-20T21:46:27.950Z,9.71
2023-02-20T21:48:29.445Z,9.69
2023-02-20T21:50:31.102Z,9.69
2023-02-20T21:52:36.708Z,9.68
2023-02-20T21:54:39.732Z,9.68
2023-02-20T21:56:41.670Z,9.65
2023-02-20T21:59:01.524Z,9.65
2023-02-20T22:01:02.959Z,9.64
2023-02-20T22:03:05.188Z,9.66
2023-02-20T22:05:08.034Z,9.69
2023-02-20T22:07:28.229Z,9.70
2023-02-20T22:09:48.052Z,9.68
2023-02-20T22:12:08.350Z,9.68
2023-02-20T22:14:28.184Z,9.69
2023-02-20T22:16:48.025Z,9.65
2023-02-20T22:19:07.861Z,9.65
2023-02-20T22:21:27.727Z,9.66
2023-02-20T22:23:47.431Z,9.64
2023-02-20T22:26:07.362Z,9.64
2023-02-20T22:28:27.735Z,9.68
2023-02-20T22:30:50.063Z,9.68
2023-02-20T22:33:12.367Z,9.65
2023-02-20T22:35:33.199Z,9.62
2023-02-20T22:37:53.095Z,9.61
2023-02-20T22:40:12.910Z,9.54
2023-02-20T22:42:35.237Z,9.50
2023-02-20T22:44:55.314Z,9.44
2023-02-20T22:47:15.132Z,9.41
2023-02-20T22:49:34.860Z,9.39
2023-02-20T22:51:55.180Z,9.36
2023-02-20T22:54:15.178Z,9.36
2023-02-20T22:56:36.833Z,9.34
2023-02-20T22:58:56.628Z,9.30
2023-02-20T23:01:17.022Z,9.28
2023-02-20T23:03:36.988Z,9.27
2023-02-20T23:06:00.510Z,9.26
2023-02-20T23:08:25.538Z,9.27
2023-02-20T23:10:45.292Z,9.25
2023-02-20T23:13:05.612Z,9.22
2023-02-20T23:15:25.876Z,9.24
2023-02-20T23:17:46.079Z,9.23
2023-02-20T23:20:05.916Z,9.21
2023-02-20T23:22:25.699Z,9.19
2023-02-20T23:24:45.458Z,9.19
2023-02-20T23:27:11.875Z,9.19
2023-02-20T23:29:31.879Z,9.18
2023-02-20T23:32:02.986Z,9.20
2023-02-20T23:34:23.761Z,9.20
2023-02-20T23:36:43.576Z,9.17
2023-02-20T23:39:03.273Z,9.17
2023-02-20T23:41:25.732Z,9.16
2023-02-20T23:43:49.159Z,9.15
2023-02-20T23:46:09.495Z,9.17
2023-02-20T23:48:30.745Z,9.17
2023-02-20T23:50:50.578Z,9.17
2023-02-20T23:53:10.404Z,9.18
2023-02-20T23:55:30.127Z,9.18
2023-02-20T23:57:50.470Z,9.20
